Time,TemperatureF,DewpointF,PressureIn,WindDirection,WindDirectionDegrees,WindSpeedMPH,WindSpeedGustMPH,Humidity,HourlyPrecipIn,Conditions,Clouds,dailyrainin,SoftwareType,DateUTC
2013-04-13 00:02:00,57.4,52.9,29.38,South,180,1.3,1.3,85,0.00,,OVC009,0.00,VWS V14.01,2013-04-13 07:02:00,
2013-04-13 00:07:00,57.6,53.1,29.38,SSE,158,0.0,0.0,85,0.00,,OVC009,0.00,VWS V14.01,2013-04-13 07:07:00,
2013-04-13 00:12:00,57.6,52.8,29.38,SSE,158,0.0,0.0,84,0.00,,OVC009,0.00,VWS V14.01,2013-04-13 07:12:00,
2013-04-13 00:17:00,57.6,52.8,29.38,SSE,158,0.0,0.0,84,0.00,,OVC009,0.00,VWS V14.01,2013-04-13 07:17:00,
2013-04-13 00:22:00,57.6,52.8,29.38,SSE,158,0.0,0.0,84,0.00,,OVC009,0.00,VWS V14.01,2013-04-13 07:22:00,
2013-04-13 00:27:00,57.7,53.0,29.38,South,180,0.0,0.0,84,0.00,,OVC009,0.00,VWS V14.01,2013-04-13 07:27:00,
2013-04-13 00:32:00,57.7,53.0,29.38,SSW,202,0.0,0.0,84,0.00,,OVC009,0.00,VWS V14.01,2013-04-13 07:32:00,
2013-04-13 00:38:00,57.7,53.0,29.38,East,90,0.9,0.9,84,0.00,,OVC009,0.00,VWS V14.01,2013-04-13 07:38:00,
2013-04-13 00:43:00,57.7,53.0,29.38,East,90,0.9,0.9,84,0.00,,OVC009,0.00,VWS V14.01,2013-04-13 07:43:00,
2013-04-13 00:48:00,57.7,53.0,29.41,East,90,0.9,0.9,84,0.00,,OVC009,0.00,VWS V14.01,2013-04-13 07:48:00,
2013-04-13 00:53:00,57.7,53.0,29.41,East,90,0.9,0.9,84,0.00,,OVC009,0.00,VWS V14.01,2013-04-13 07:53:00,
2013-04-13 00:58:00,57.7,53.0,29.41,South,180,0.0,0.0,84,0.00,,OVC009,0.00,VWS V14.01,2013-04-13 07:58:00,
2013-04-13 01:03:00,57.9,53.1,29.38,South,180,0.0,0.0,84,0.00,,OVC009,0.00,VWS V14.01,2013-04-13 08:03:00,
2013-04-13 01:08:00,57.7,53.0,29.38,SSE,158,0.0,0.0,84,0.00,,OVC009,0.00,VWS V14.01,2013-04-13 08:08:00,
2013-04-13 01:13:00,57.9,53.1,29.38,SSE,158,0.0,0.0,84,0.00,,OVC009,0.00,VWS V14.01,2013-04-13 08:13:00,
2013-04-13 01:18:00,57.9,53.1,29.41,ESE,112,0.0,0.0,84,0.00,,OVC009,0.00,VWS V14.01,2013-04-13 08:18:00,
2013-04-13 01:23:00,57.7,53.0,29.41,SSE,158,0.0,0.0,84,0.00,,OVC009,0.00,VWS V14.01,2013-04-13 08:23:00,
2013-04-13 01:28:00,57.7,53.0,29.41,South,180,0.0,0.0,84,0.00,,OVC009,0.00,VWS V14.01,2013-04-13 08:28:00,
2013-04-13 01:33:00,57.7,53.0,29.38,SSW,202,0.9,0.9,84,0.00,,OVC009,0.00,VWS V14.01,2013-04-13 08:33:00,
2013-04-13 01:38:00,57.6,52.8,29.38,SSE,158,0.0,0.0,84,0.00,,OVC009,0.00,VWS V14.01,2013-04-13 08:38:00,
2013-04-13 01:44:00,57.6,52.8,29.38,SSW,202,1.3,1.3,84,0.00,,OVC009,0.00,VWS V14.01,2013-04-13 08:44:00,
2013-04-13 01:49:00,57.6,52.8,29.35,SSW,202,1.3,1.3,84,0.00,,OVC009,0.00,VWS V14.01,2013-04-13 08:49:00,
2013-04-13 01:54:00,57.6,52.8,29.35,SW,225,0.0,0.0,84,0.00,,OVC009,0.00,VWS V14.01,2013-04-13 08:54:00,
2013-04-13 01:59:00,57.6,52.8,29.35,SW,225,0.0,0.0,84,0.00,,OVC009,0.00,VWS V14.01,2013-04-13 08:59:00,
2013-04-13 02:04:00,57.6,52.8,29.38,SW,225,0.0,0.0,84,0.00,,OVC009,0.00,VWS V14.01,2013-04-13 09:04:00,
2013-04-13 02:09:00,57.6,52.8,29.38,SW,225,0.0,0.0,84,0.00,,OVC009,0.00,VWS V14.01,2013-04-13 09:09:00,
2013-04-13 02:14:00,57.6,52.8,29.38,SW,225,0.0,0.0,84,0.00,,OVC009,0.00,VWS V14.01,2013-04-13 09:14:00,
2013-04-13 02:19:00,57.6,52.8,29.38,SW,225,0.0,0.0,84,0.00,,OVC009,0.00,VWS V14.01,2013-04-13 09:19:00,
2013-04-13 02:24:00,57.6,52.8,29.38,South,180,0.0,0.0,84,0.00,,OVC009,0.00,VWS V14.01,2013-04-13 09:24:00,
2013-04-13 02:29:00,57.6,52.8,29.38,SSE,158,0.0,0.0,84,0.00,,OVC009,0.00,VWS V14.01,2013-04-13 09:29:00,
2013-04-13 02:34:00,57.6,52.8,29.35,SSE,158,0.0,0.0,84,0.00,,OVC009,0.00,VWS V14.01,2013-04-13 09:34:00,
2013-04-13 02:39:00,57.6,52.8,29.35,SE,135,0.0,0.0,84,0.00,,OVC009,0.00,VWS V14.01,2013-04-13 09:39:00,
2013-04-13 02:44:00,57.6,52.8,29.38,SE,135,0.0,0.0,84,0.00,,OVC009,0.00,VWS V14.01,2013-04-13 09:44:00,
2013-04-13 02:49:00,57.6,52.8,29.38,SE,135,0.0,0.0,84,0.00,,OVC009,0.00,VWS V14.01,2013-04-13 09:49:00,
2013-04-13 02:54:00,57.6,52.8,29.38,SE,135,0.0,0.0,84,0.00,,OVC009,0.00,VWS V14.01,2013-04-13 09:54:00,
2013-04-13 02:59:00,57.6,52.8,29.38,SSE,158,0.0,0.0,84,0.00,,OVC009,0.00,VWS V14.01,2013-04-13 09:59:00,
2013-04-13 03:04:00,57.6,52.8,29.38,SSE,158,0.0,0.0,84,0.00,,OVC009,0.00,VWS V14.01,2013-04-13 10:04:00,
2013-04-13 03:09:00,57.6,52.8,29.38,SSE,158,0.0,0.0,84,0.00,,OVC009,0.00,VWS V14.01,2013-04-13 10:09:00,
2013-04-13 03:14:00,57.6,53.1,29.38,SSE,158,0.0,0.0,85,0.00,,OVC009,0.00,VWS V14.01,2013-04-13 10:14:00,
2013-04-13 03:19:00,57.4,52.9,29.38,SSE,158,0.0,0.0,85,0.00,,OVC009,0.00,VWS V14.01,2013-04-13 10:19:00,
2013-04-13 03:24:00,57.4,52.9,29.38,SSE,158,0.0,0.0,85,0.00,,OVC009,0.00,VWS V14.01,2013-04-13 10:24:00,
2013-04-13 03:29:00,57.6,53.1,29.38,South,180,0.0,0.0,85,0.00,,OVC009,0.00,VWS V14.01,2013-04-13 10:29:00,
2013-04-13 03:34:00,57.6,53.1,29.35,SSE,158,0.0,0.0,85,0.00,,OVC009,0.00,VWS V14.01,2013-04-13 10:34:00,
2013-04-13 03:39:00,57.6,53.1,29.35,SSE,158,0.0,0.0,85,0.00,,OVC009,0.00,VWS V14.01,2013-04-13 10:39:00,
2013-04-13 03:44:00,57.6,53.1,29.38,SSE,158,0.0,0.0,85,0.00,,OVC009,0.00,VWS V14.01,2013-04-13 10:44:00,
2013-04-13 03:50:00,57.6,53.1,29.38,SSE,158,0.0,0.0,85,0.00,,OVC009,0.00,VWS V14.01,2013-04-13 10:50:00,
2013-04-13 03:55:00,57.6,53.1,29.38,South,180,0.0,0.0,85,0.00,,OVC009,0.00,VWS V14.01,2013-04-13 10:55:00,
2013-04-13 04:00:00,57.6,53.1,29.38,SSE,158,0.0,0.0,85,0.00,,OVC009,0.00,VWS V14.01,2013-04-13 11:00:00,
2013-04-13 04:05:00,57.6,53.1,29.38,SSE,158,0.0,0.0,85,0.00,,OVC009,0.00,VWS V14.01,2013-04-13 11:05:00,
2013-04-13 04:10:00,57.6,53.1,29.38,SSE,158,0.0,0.0,85,0.00,,OVC009,0.00,VWS V14.01,2013-04-13 11:10:00,
2013-04-13 04:15:00,57.4,52.9,29.38,SSE,158,0.0,0.0,85,0.00,,OVC009,0.00,VWS V14.01,2013-04-13 11:15:00,
2013-04-13 04:20:00,57.4,52.9,29.38,SSE,158,0.0,0.0,85,0.00,,OVC009,0.00,VWS V14.01,2013-04-13 11:20:00,
2013-04-13 04:25:00,57.4,52.9,29.38,SSE,158,0.0,0.0,85,0.00,,OVC009,0.00,VWS V14.01,2013-04-13 11:25:00,
2013-04-13 04:30:00,57.4,52.9,29.38,SSE,158,0.0,0.0,85,0.00,,OVC009,0.00,VWS V14.01,2013-04-13 11:30:00,
2013-04-13 04:35:00,57.2,52.7,29.38,SSE,158,0.0,0.0,85,0.00,,OVC009,0.00,VWS V14.01,2013-04-13 11:35:00,
2013-04-13 04:40:00,57.2,52.7,29.38,SSE,158,0.0,0.0,85,0.00,,OVC009,0.00,VWS V14.01,2013-04-13 11:40:00,
2013-04-13 04:45:00,57.2,52.7,29.38,SSE,158,0.0,0.0,85,0.00,,,0.00,VWS V14.01,2013-04-13 11:45:00,
2013-04-13 04:50:00,57.2,53.1,29.38,SSE,158,0.0,0.0,86,0.00,,,0.00,VWS V14.01,2013-04-13 11:50:00,
2013-04-13 04:55:00,57.2,53.1,29.38,SSE,158,0.0,0.0,86,0.00,,,0.00,VWS V14.01,2013-04-13 11:55:00,
2013-04-13 05:00:00,57.2,53.1,29.38,South,180,0.0,0.0,86,0.00,,OVC011,0.00,VWS V14.01,2013-04-13 12:00:00,
2013-04-13 05:05:00,57.2,53.1,29.38,South,180,0.0,0.0,86,0.00,,OVC011,0.00,VWS V14.01,2013-04-13 12:05:00,
2013-04-13 05:10:00,57.2,53.1,29.38,South,180,0.0,0.0,86,0.00,,OVC011,0.00,VWS V14.01,2013-04-13 12:10:00,
2013-04-13 05:15:00,57.2,53.1,29.38,South,180,0.0,0.0,86,0.00,,OVC009,0.00,VWS V14.01,2013-04-13 12:15:00,
2013-04-13 05:20:00,57.2,53.1,29.38,South,180,0.0,0.0,86,0.00,,OVC009,0.00,VWS V14.01,2013-04-13 12:20:00,
2013-04-13 05:25:00,57.2,53.1,29.38,South,180,0.0,0.0,86,0.00,,OVC009,0.00,VWS V14.01,2013-04-13 12:25:00,
2013-04-13 05:30:00,57.2,53.1,29.38,South,180,0.0,0.0,86,0.00,,OVC009,0.00,VWS V14.01,2013-04-13 12:30:00,
2013-04-13 05:35:00,57.2,53.1,29.38,South,180,0.0,0.0,86,0.00,,OVC009,0.00,VWS V14.01,2013-04-13 12:35:00,
2013-04-13 05:40:00,57.2,53.1,29.38,ENE,68,0.9,0.9,86,0.00,,OVC009,0.00,VWS V14.01,2013-04-13 12:40:00,
2013-04-13 05:45:00,57.2,53.1,29.38,ENE,68,0.9,0.9,86,0.00,,OVC009,0.00,VWS V14.01,2013-04-13 12:45:00,
2013-04-13 05:50:00,57.2,53.1,29.38,ENE,68,0.9,0.9,86,0.00,,OVC009,0.00,VWS V14.01,2013-04-13 12:50:00,
2013-04-13 05:55:00,57.2,53.1,29.38,ENE,68,0.9,0.9,86,0.00,,OVC009,0.00,VWS V14.01,2013-04-13 12:55:00,
2013-04-13 06:00:00,57.2,53.4,29.38,ENE,68,0.9,0.9,87,0.00,,,0.00,VWS V14.01,2013-04-13 13:00:00,
2013-04-13 06:05:00,57.2,53.4,29.38,South,180,0.0,0.0,87,0.00,,,0.00,VWS V14.01,2013-04-13 13:05:00,
2013-04-13 06:10:00,57.2,53.4,29.38,South,180,0.0,0.0,87,0.00,,,0.00,VWS V14.01,2013-04-13 13:10:00,
2013-04-13 06:16:00,57.2,53.4,29.38,South,180,0.0,0.0,87,0.00,,,0.00,VWS V14.01,2013-04-13 13:16:00,
2013-04-13 06:21:00,57.2,53.1,29.38,SE,135,0.0,0.0,86,0.00,,,0.00,VWS V14.01,2013-04-13 13:21:00,
2013-04-13 06:26:00,57.0,52.9,29.38,SE,135,0.0,0.0,86,0.00,,,0.00,VWS V14.01,2013-04-13 13:26:00,
2013-04-13 06:31:00,57.0,52.9,29.38,ESE,112,0.0,0.0,86,0.00,,,0.00,VWS V14.01,2013-04-13 13:31:00,
2013-04-13 06:36:00,57.0,52.9,29.38,ESE,112,0.0,0.0,86,0.00,,,0.00,VWS V14.01,2013-04-13 13:36:00,
2013-04-13 06:41:00,57.2,53.1,29.38,ESE,112,0.0,0.0,86,0.00,,,0.00,VWS V14.01,2013-04-13 13:41:00,
2013-04-13 06:46:00,57.2,53.1,29.41,ESE,112,0.0,0.0,86,0.00,,,0.00,VWS V14.01,2013-04-13 13:46:00,
2013-04-13 06:51:00,57.0,52.9,29.41,ESE,112,0.0,0.0,86,0.00,,,0.00,VWS V14.01,2013-04-13 13:51:00,
2013-04-13 06:56:00,57.0,52.9,29.41,ESE,112,0.0,0.0,86,0.00,,,0.00,VWS V14.01,2013-04-13 13:56:00,
2013-04-13 07:01:00,57.0,52.9,29.38,ESE,112,0.0,0.0,86,0.00,,,0.00,VWS V14.01,2013-04-13 14:01:00,
2013-04-13 07:06:00,57.0,52.9,29.38,ESE,112,0.0,0.0,86,0.00,,,0.00,VWS V14.01,2013-04-13 14:06:00,
2013-04-13 07:12:00,57.0,53.2,29.38,ESE,112,0.0,0.0,87,0.00,,,0.00,VWS V14.01,2013-04-13 14:12:00,
2013-04-13 07:17:00,57.0,53.2,29.35,SSE,158,0.0,0.0,87,0.00,,,0.00,VWS V14.01,2013-04-13 14:17:00,
2013-04-13 07:22:00,57.2,53.1,29.35,SSE,158,0.0,0.0,86,0.00,,,0.00,VWS V14.01,2013-04-13 14:22:00,
2013-04-13 07:27:00,57.2,53.1,29.35,SSE,158,0.0,0.0,86,0.00,,,0.00,VWS V14.01,2013-04-13 14:27:00,
2013-04-13 07:33:00,57.4,53.2,29.38,NE,45,0.0,0.0,86,0.00,,,0.00,VWS V14.01,2013-04-13 14:33:00,
2013-04-13 07:38:00,57.4,53.2,29.38,East,90,0.0,0.0,86,0.00,,,0.00,VWS V14.01,2013-04-13 14:38:00,
2013-04-13 07:43:00,57.4,53.2,29.38,East,90,0.0,0.0,86,0.00,,,0.00,VWS V14.01,2013-04-13 14:43:00,
2013-04-13 07:48:00,57.6,53.4,29.35,SE,135,0.0,0.0,86,0.00,,,0.00,VWS V14.01,2013-04-13 14:48:00,
2013-04-13 07:53:00,57.6,53.4,29.35,SE,135,0.0,0.0,86,0.00,,,0.00,VWS V14.01,2013-04-13 14:53:00,
2013-04-13 07:58:00,57.6,53.1,29.35,SE,135,0.0,0.0,85,0.00,,,0.00,VWS V14.01,2013-04-13 14:58:00,
2013-04-13 08:04:00,57.7,53.3,29.38,SE,135,0.0,0.0,85,0.00,,,0.00,VWS V14.01,2013-04-13 15:04:00,
2013-04-13 08:09:00,57.7,53.3,29.38,ESE,112,0.0,0.0,85,0.00,,,0.00,VWS V14.01,2013-04-13 15:09:00,
2013-04-13 08:14:00,57.7,53.3,29.41,ESE,112,0.0,0.0,85,0.00,,,0.00,VWS V14.01,2013-04-13 15:14:00,
2013-04-13 08:19:00,57.9,53.4,29.41,ESE,112,0.0,0.0,85,0.00,,,0.00,VWS V14.01,2013-04-13 15:19:00,
2013-04-13 08:24:00,57.7,53.3,29.41,South,180,0.0,0.0,85,0.00,,,0.00,VWS V14.01,2013-04-13 15:24:00,
2013-04-13 08:29:00,57.7,53.3,29.38,South,180,0.0,0.0,85,0.00,,OVC011,0.00,VWS V14.01,2013-04-13 15:29:00,
2013-04-13 08:34:00,57.7,53.6,29.38,South,180,0.0,0.0,86,0.00,,OVC011,0.00,VWS V14.01,2013-04-13 15:34:00,
2013-04-13 08:39:00,57.9,53.8,29.38,South,180,0.0,0.0,86,0.00,,OVC011,0.00,VWS V14.01,2013-04-13 15:39:00,
2013-04-13 08:44:00,57.9,53.8,29.38,South,180,0.0,0.0,86,0.00,,OVC011,0.00,VWS V14.01,2013-04-13 15:44:00,
2013-04-13 08:49:00,58.1,53.9,29.38,SSE,158,0.0,0.0,86,0.00,,OVC011,0.00,VWS V14.01,2013-04-13 15:49:00,
2013-04-13 08:54:00,57.9,53.8,29.38,SSW,202,0.9,0.9,86,0.00,,OVC011,0.00,VWS V14.01,2013-04-13 15:54:00,
2013-04-13 09:00:00,58.1,53.9,29.38,SSW,202,0.0,0.0,86,0.00,,OVC011,0.00,VWS V14.01,2013-04-13 16:00:00,
2013-04-13 09:05:00,58.1,53.9,29.38,SSW,202,0.0,0.0,86,0.00,,OVC011,0.00,VWS V14.01,2013-04-13 16:05:00,
2013-04-13 09:10:00,58.3,54.1,29.38,SSE,158,0.0,0.0,86,0.00,,OVC011,0.00,VWS V14.01,2013-04-13 16:10:00,
2013-04-13 09:15:00,58.3,54.1,29.38,South,180,0.9,0.9,86,0.00,,OVC011,0.00,VWS V14.01,2013-04-13 16:15:00,
2013-04-13 09:20:00,58.3,53.8,29.38,SSE,158,0.0,0.0,85,0.00,,OVC011,0.00,VWS V14.01,2013-04-13 16:20:00,
2013-04-13 09:25:00,58.3,53.8,29.38,SSE,158,0.0,0.0,85,0.00,,OVC011,0.00,VWS V14.01,2013-04-13 16:25:00,
2013-04-13 09:30:00,58.5,54.0,29.38,SE,135,0.0,0.0,85,0.00,,OVC011,0.00,VWS V14.01,2013-04-13 16:30:00,
2013-04-13 09:35:00,58.6,54.2,29.38,South,180,0.0,0.0,85,0.00,,OVC011,0.00,VWS V14.01,2013-04-13 16:35:00,
2013-04-13 09:40:00,58.8,54.0,29.38,SSE,158,0.0,0.0,84,0.00,,OVC011,0.00,VWS V14.01,2013-04-13 16:40:00,
2013-04-13 09:45:00,59.2,54.4,29.38,ESE,112,0.0,0.0,84,0.00,,OVC011,0.00,VWS V14.01,2013-04-13 16:45:00,
2013-04-13 09:50:00,59.2,54.0,29.38,SSE,158,0.0,0.0,83,0.00,,OVC011,0.00,VWS V14.01,2013-04-13 16:50:00,
2013-04-13 09:55:00,59.4,54.2,29.38,SW,225,0.0,0.0,83,0.00,,OVC011,0.00,VWS V14.01,2013-04-13 16:55:00,
2013-04-13 10:00:00,59.4,54.2,29.41,West,270,0.0,0.0,83,0.00,,OVC011,0.00,VWS V14.01,2013-04-13 17:00:00,
2013-04-13 10:05:00,59.5,54.4,29.41,SSE,158,0.0,0.0,83,0.00,,OVC011,0.00,VWS V14.01,2013-04-13 17:05:00,
2013-04-13 10:10:00,59.5,54.4,29.41,South,180,1.1,1.1,83,0.00,,OVC011,0.00,VWS V14.01,2013-04-13 17:10:00,
2013-04-13 10:15:00,59.7,54.2,29.41,ENE,68,0.0,0.0,82,0.00,,OVC011,0.00,VWS V14.01,2013-04-13 17:15:00,
2013-04-13 10:20:00,59.4,53.9,29.41,SSE,158,0.0,0.0,82,0.00,,OVC011,0.00,VWS V14.01,2013-04-13 17:20:00,
2013-04-13 10:25:00,59.5,54.0,29.41,SSE,158,2.0,2.0,82,0.00,,OVC011,0.00,VWS V14.01,2013-04-13 17:25:00,
2013-04-13 10:30:00,59.4,53.9,29.41,SSE,158,1.6,1.6,82,0.00,,OVC011,0.00,VWS V14.01,2013-04-13 17:30:00,
2013-04-13 10:35:00,59.4,53.9,29.41,SSE,158,0.0,0.0,82,0.00,,OVC011,0.00,VWS V14.01,2013-04-13 17:35:00,
2013-04-13 10:41:00,59.7,54.2,29.41,SW,225,0.0,0.0,82,0.00,,OVC011,0.00,VWS V14.01,2013-04-13 17:41:00,
2013-04-13 10:46:00,60.1,54.6,29.41,East,90,0.0,0.0,82,0.00,,OVC011,0.00,VWS V14.01,2013-04-13 17:46:00,
2013-04-13 10:52:00,60.4,54.9,29.41,SE,135,0.0,0.0,82,0.00,,OVC011,0.00,VWS V14.01,2013-04-13 17:52:00,
2013-04-13 10:57:00,60.6,54.8,29.41,WSW,248,1.1,1.1,81,0.00,,OVC011,0.00,VWS V14.01,2013-04-13 17:57:00,
2013-04-13 11:02:00,60.8,54.6,29.41,NE,45,0.0,0.0,80,0.00,,OVC013,0.00,VWS V14.01,2013-04-13 18:02:00,
2013-04-13 11:07:00,61.2,54.6,29.41,ENE,68,0.0,0.0,79,0.00,,OVC013,0.00,VWS V14.01,2013-04-13 18:07:00,
2013-04-13 11:12:00,61.5,55.0,29.41,SSE,158,0.9,0.9,79,0.00,,OVC013,0.00,VWS V14.01,2013-04-13 18:12:00,
2013-04-13 11:17:00,61.7,55.1,29.44,SSE,158,0.9,0.9,79,0.00,,OVC013,0.00,VWS V14.01,2013-04-13 18:17:00,
2013-04-13 11:22:00,61.5,54.6,29.44,SSW,202,1.1,1.1,78,0.00,,OVC013,0.00,VWS V14.01,2013-04-13 18:22:00,
2013-04-13 11:27:00,61.9,55.0,29.44,SSW,202,0.9,0.9,78,0.00,,OVC013,0.00,VWS V14.01,2013-04-13 18:27:00,
2013-04-13 11:32:00,61.7,54.1,29.44,South,180,2.2,2.2,76,0.00,,OVC013,0.00,VWS V14.01,2013-04-13 18:32:00,
2013-04-13 11:37:00,61.5,53.9,29.44,West,270,0.0,0.0,76,0.00,,OVC013,0.00,VWS V14.01,2013-04-13 18:37:00,
2013-04-13 11:42:00,62.1,54.4,29.44,SSE,158,0.0,0.0,76,0.00,,OVC013,0.00,VWS V14.01,2013-04-13 18:42:00,
2013-04-13 11:47:00,62.2,54.2,29.44,SSE,158,0.0,0.0,75,0.00,,OVC013,0.00,VWS V14.01,2013-04-13 18:47:00,
2013-04-13 11:52:00,61.9,53.9,29.44,South,180,1.3,1.3,75,0.00,,OVC013,0.00,VWS V14.01,2013-04-13 18:52:00,
2013-04-13 11:57:00,62.4,54.4,29.44,SW,225,0.0,0.0,75,0.00,,OVC013,0.00,VWS V14.01,2013-04-13 18:57:00,
2013-04-13 12:02:00,62.4,54.0,29.44,SW,225,0.0,0.0,74,0.00,,OVC013,0.00,VWS V14.01,2013-04-13 19:02:00,
2013-04-13 12:07:00,62.2,53.9,29.44,SE,135,1.3,1.3,74,0.00,,OVC013,0.00,VWS V14.01,2013-04-13 19:07:00,
2013-04-13 12:12:00,62.6,53.8,29.44,SSE,158,2.5,2.5,73,0.00,,OVC013,0.00,VWS V14.01,2013-04-13 19:12:00,
2013-04-13 12:17:00,62.8,54.0,29.44,South,180,0.9,0.9,73,0.00,,OVC013,0.00,VWS V14.01,2013-04-13 19:17:00,
2013-04-13 12:22:00,63.1,54.3,29.44,ESE,112,1.6,1.6,73,0.00,,OVC013,0.00,VWS V14.01,2013-04-13 19:22:00,
2013-04-13 12:27:00,63.0,53.8,29.44,ESE,112,1.6,1.6,72,0.00,,OVC013,0.00,VWS V14.01,2013-04-13 19:27:00,
2013-04-13 12:32:00,62.8,53.6,29.41,ESE,112,1.6,1.6,72,0.00,,OVC015,0.00,VWS V14.01,2013-04-13 19:32:00,
2013-04-13 12:38:00,63.0,53.8,29.41,ESE,112,1.6,1.6,72,0.00,,OVC015,0.00,VWS V14.01,2013-04-13 19:38:00,
2013-04-13 12:43:00,63.1,54.0,29.41,West,270,0.0,0.0,72,0.00,,OVC015,0.00,VWS V14.01,2013-04-13 19:43:00,
2013-04-13 12:48:00,62.8,53.6,29.41,West,270,0.0,0.0,72,0.00,,OVC015,0.00,VWS V14.01,2013-04-13 19:48:00,
2013-04-13 12:53:00,62.2,53.5,29.41,West,270,0.0,0.0,73,0.00,,OVC015,0.00,VWS V14.01,2013-04-13 19:53:00,
2013-04-13 12:58:00,61.9,53.1,29.41,West,270,0.0,0.0,73,0.00,,OVC015,0.00,VWS V14.01,2013-04-13 19:58:00,
2013-04-13 13:03:00,61.7,53.3,29.41,West,270,0.0,0.0,74,0.00,,OVC015,0.00,VWS V14.01,2013-04-13 20:03:00,
2013-04-13 13:08:00,61.3,53.0,29.41,West,270,0.0,0.0,74,0.00,,OVC015,0.00,VWS V14.01,2013-04-13 20:08:00,
2013-04-13 13:13:00,61.0,53.0,29.41,West,270,0.0,0.0,75,0.00,,OVC015,0.00,VWS V14.01,2013-04-13 20:13:00,
2013-04-13 13:18:00,60.6,53.4,29.41,West,270,0.0,0.0,77,0.00,,OVC015,0.00,VWS V14.01,2013-04-13 20:18:00,
2013-04-13 13:23:00,60.8,53.5,29.41,West,270,0.0,0.0,77,0.00,,OVC015,0.00,VWS V14.01,2013-04-13 20:23:00,
2013-04-13 13:28:00,60.6,53.7,29.41,West,270,0.0,0.0,78,0.00,,OVC015,0.00,VWS V14.01,2013-04-13 20:28:00,
2013-04-13 13:33:00,60.8,53.9,29.41,West,270,0.0,0.0,78,0.00,,,0.00,VWS V14.01,2013-04-13 20:33:00,
2013-04-13 13:38:00,60.8,53.9,29.41,West,270,0.0,0.0,78,0.00,,,0.00,VWS V14.01,2013-04-13 20:38:00,
2013-04-13 13:43:00,60.8,53.5,29.41,West,270,0.0,0.0,77,0.00,,,0.00,VWS V14.01,2013-04-13 20:43:00,
2013-04-13 13:48:00,61.2,54.3,29.41,West,270,0.0,0.0,78,0.00,,,0.00,VWS V14.01,2013-04-13 20:48:00,
2013-04-13 13:53:00,61.0,53.7,29.41,West,270,0.0,0.0,77,0.00,,,0.00,VWS V14.01,2013-04-13 20:53:00,
2013-04-13 13:58:00,60.8,53.5,29.41,West,270,0.0,0.0,77,0.00,,,0.00,VWS V14.01,2013-04-13 20:58:00,
2013-04-13 14:03:00,60.8,53.5,29.41,West,270,0.0,0.0,77,0.00,,,0.00,VWS V14.01,2013-04-13 21:03:00,
2013-04-13 14:08:00,61.0,53.7,29.41,West,270,0.0,0.0,77,0.00,,,0.00,VWS V14.01,2013-04-13 21:08:00,
2013-04-13 14:13:00,61.2,53.5,29.41,West,270,0.0,0.0,76,0.00,,,0.00,VWS V14.01,2013-04-13 21:13:00,
2013-04-13 14:18:00,60.8,53.2,29.38,West,270,0.0,0.0,76,0.00,,,0.00,VWS V14.01,2013-04-13 21:18:00,
2013-04-13 14:23:00,60.6,53.0,29.38,West,270,0.0,0.0,76,0.00,,,0.00,VWS V14.01,2013-04-13 21:23:00,
2013-04-13 14:28:00,60.4,52.8,29.38,West,270,0.0,0.0,76,0.00,,,0.00,VWS V14.01,2013-04-13 21:28:00,
2013-04-13 14:33:00,61.0,53.4,29.38,West,270,0.0,0.0,76,0.00,,,0.00,VWS V14.01,2013-04-13 21:33:00,
2013-04-13 14:38:00,60.8,52.8,29.38,West,270,0.0,0.0,75,0.00,,,0.00,VWS V14.01,2013-04-13 21:38:00,
2013-04-13 14:43:00,60.8,52.8,29.38,West,270,0.0,0.0,75,0.00,,,0.00,VWS V14.01,2013-04-13 21:43:00,
2013-04-13 14:48:00,61.3,53.7,29.38,West,270,0.0,0.0,76,0.00,,,0.00,VWS V14.01,2013-04-13 21:48:00,
2013-04-13 14:53:00,61.0,52.7,29.38,West,270,0.0,0.0,74,0.00,,,0.00,VWS V14.01,2013-04-13 21:53:00,
2013-04-13 14:58:00,61.3,53.0,29.38,West,270,0.0,0.0,74,0.00,,,0.00,VWS V14.01,2013-04-13 21:58:00,
2013-04-13 15:03:00,61.5,53.2,29.35,West,270,0.0,0.0,74,0.00,,OVC011,0.00,VWS V14.01,2013-04-13 22:03:00,
2013-04-13 15:08:00,61.7,53.3,29.35,West,270,0.0,0.0,74,0.00,,OVC011,0.00,VWS V14.01,2013-04-13 22:08:00,
2013-04-13 15:14:00,62.4,53.7,29.35,West,270,0.0,0.0,73,0.00,,OVC011,0.00,VWS V14.01,2013-04-13 22:14:00,
2013-04-13 15:19:00,61.7,52.6,29.38,West,270,0.0,0.0,72,0.00,,OVC011,0.00,VWS V14.01,2013-04-13 22:19:00,
2013-04-13 15:23:00,61.9,52.8,29.38,West,270,0.0,0.0,72,0.00,,OVC011,0.00,VWS V14.01,2013-04-13 22:23:00,
2013-04-13 15:28:00,61.9,52.8,29.38,West,270,0.0,0.0,72,0.00,,OVC011,0.00,VWS V14.01,2013-04-13 22:28:00,
2013-04-13 15:33:00,62.2,53.1,29.38,West,270,0.0,0.0,72,0.00,,OVC011,0.00,VWS V14.01,2013-04-13 22:33:00,
2013-04-13 15:39:00,61.7,52.6,29.38,West,270,0.0,0.0,72,0.00,,OVC011,0.00,VWS V14.01,2013-04-13 22:39:00,
2013-04-13 15:44:00,61.7,52.6,29.38,West,270,0.0,0.0,72,0.00,,OVC011,0.00,VWS V14.01,2013-04-13 22:44:00,
2013-04-13 15:49:00,62.1,52.9,29.38,West,270,0.0,0.0,72,0.00,,OVC011,0.00,VWS V14.01,2013-04-13 22:49:00,
2013-04-13 15:54:00,61.9,52.8,29.38,West,270,0.0,0.0,72,0.00,,OVC011,0.00,VWS V14.01,2013-04-13 22:54:00,
2013-04-13 15:59:00,61.5,52.4,29.38,SSE,158,2.2,2.2,72,0.00,,OVC011,0.00,VWS V14.01,2013-04-13 22:59:00,
2013-04-13 16:04:00,61.2,52.1,29.38,South,180,3.8,3.8,72,0.00,,OVC014,0.00,VWS V14.01,2013-04-13 23:04:00,
2013-04-13 16:09:00,61.5,52.8,29.38,South,180,3.8,3.8,73,0.00,,OVC014,0.00,VWS V14.01,2013-04-13 23:09:00,
2013-04-13 16:14:00,61.9,52.8,29.38,South,180,3.8,3.8,72,0.00,,OVC014,0.00,VWS V14.01,2013-04-13 23:14:00,
2013-04-13 16:19:00,61.7,52.6,29.38,South,180,3.8,3.8,72,0.00,,OVC014,0.00,VWS V14.01,2013-04-13 23:19:00,
2013-04-13 16:24:00,61.5,52.4,29.38,South,180,3.8,3.8,72,0.00,,OVC014,0.00,VWS V14.01,2013-04-13 23:24:00,
2013-04-13 16:29:00,61.5,52.4,29.38,South,180,3.8,3.8,72,0.00,,OVC014,0.00,VWS V14.01,2013-04-13 23:29:00,
2013-04-13 16:34:00,61.3,52.2,29.38,South,180,3.8,3.8,72,0.00,,OVC014,0.00,VWS V14.01,2013-04-13 23:34:00,
2013-04-13 16:39:00,61.2,52.1,29.38,South,180,3.8,3.8,72,0.00,,OVC014,0.00,VWS V14.01,2013-04-13 23:39:00,
2013-04-13 16:44:00,61.2,52.1,29.38,SSW,202,0.0,0.0,72,0.00,,OVC014,0.00,VWS V14.01,2013-04-13 23:44:00,
2013-04-13 16:49:00,60.8,51.7,29.38,SSW,202,0.0,0.0,72,0.00,,OVC014,0.00,VWS V14.01,2013-04-13 23:49:00,
2013-04-13 16:54:00,60.8,51.7,29.38,SSW,202,1.6,1.6,72,0.00,,OVC014,0.00,VWS V14.01,2013-04-13 23:54:00,
2013-04-13 16:59:00,61.0,52.3,29.35,SSW,202,1.6,1.6,73,0.00,,OVC013,0.00,VWS V14.01,2013-04-13 23:59:00,
2013-04-13 17:04:00,60.8,52.1,29.35,SSW,202,1.1,1.1,73,0.00,,OVC013,0.00,VWS V14.01,2013-04-14 00:04:00,
2013-04-13 17:09:00,60.6,51.9,29.35,SSW,202,1.1,1.1,73,0.00,,OVC013,0.00,VWS V14.01,2013-04-14 00:09:00,
2013-04-13 17:14:00,60.4,52.1,29.35,SSW,202,1.1,1.1,74,0.00,,OVC013,0.00,VWS V14.01,2013-04-14 00:14:00,
2013-04-13 17:19:00,60.3,51.6,29.35,SSW,202,1.1,1.1,73,0.00,,OVC013,0.00,VWS V14.01,2013-04-14 00:19:00,
2013-04-13 17:24:00,60.1,51.8,29.35,SSW,202,1.1,1.1,74,0.00,,OVC013,0.00,VWS V14.01,2013-04-14 00:24:00,
2013-04-13 17:29:00,60.1,52.1,29.35,SSW,202,1.1,1.1,75,0.00,,OVC015,0.00,VWS V14.01,2013-04-14 00:29:00,
2013-04-13 17:34:00,59.7,51.4,29.35,SSW,202,1.1,1.1,74,0.00,,OVC015,0.00,VWS V14.01,2013-04-14 00:34:00,
2013-04-13 17:39:00,59.4,51.5,29.35,SSW,202,1.1,1.1,75,0.00,,OVC015,0.00,VWS V14.01,2013-04-14 00:39:00,
2013-04-13 17:44:00,59.2,51.3,29.35,SSW,202,1.1,1.1,75,0.00,,OVC015,0.00,VWS V14.01,2013-04-14 00:44:00,
2013-04-13 17:49:00,59.0,51.5,29.35,SSW,202,1.1,1.1,76,0.00,,OVC015,0.00,VWS V14.01,2013-04-14 00:49:00,
2013-04-13 17:54:00,59.0,51.5,29.35,SSW,202,1.1,1.1,76,0.00,,OVC015,0.00,VWS V14.01,2013-04-14 00:54:00,
2013-04-13 17:59:00,59.0,51.8,29.35,SSW,202,1.1,1.1,77,0.00,,OVC015,0.00,VWS V14.01,2013-04-14 00:59:00,
2013-04-13 18:04:00,58.8,51.6,29.35,SSW,202,1.1,1.1,77,0.00,,OVC015,0.00,VWS V14.01,2013-04-14 01:04:00,
2013-04-13 18:09:00,58.6,51.8,29.35,SSW,202,1.1,1.1,78,0.00,,OVC015,0.00,VWS V14.01,2013-04-14 01:09:00,
2013-04-13 18:14:00,58.6,51.8,29.35,SSW,202,1.1,1.1,78,0.00,,OVC015,0.00,VWS V14.01,2013-04-14 01:14:00,
2013-04-13 18:19:00,58.6,51.8,29.35,SSW,202,1.1,1.1,78,0.00,,OVC015,0.00,VWS V14.01,2013-04-14 01:19:00,
2013-04-13 18:25:00,58.5,51.6,29.35,SSW,202,1.1,1.1,78,0.00,,OVC015,0.00,VWS V14.01,2013-04-14 01:25:00,
2013-04-13 18:30:00,58.3,51.5,29.35,SSW,202,1.1,1.1,78,0.00,,OVC015,0.00,VWS V14.01,2013-04-14 01:30:00,
2013-04-13 18:35:00,58.1,51.6,29.35,SSW,202,1.1,1.1,79,0.00,,OVC015,0.00,VWS V14.01,2013-04-14 01:35:00,
2013-04-13 18:40:00,58.1,51.6,29.35,SSW,202,1.1,1.1,79,0.00,,OVC015,0.00,VWS V14.01,2013-04-14 01:40:00,
2013-04-13 18:45:00,57.7,51.3,29.38,SSW,202,1.1,1.1,79,0.00,,OVC015,0.00,VWS V14.01,2013-04-14 01:45:00,
2013-04-13 18:50:00,57.7,51.3,29.38,SSW,202,1.1,1.1,79,0.00,,OVC015,0.00,VWS V14.01,2013-04-14 01:50:00,
2013-04-13 18:55:00,57.6,51.5,29.38,SSW,202,1.1,1.1,80,0.00,,OVC015,0.00,VWS V14.01,2013-04-14 01:55:00,
2013-04-13 19:00:00,57.6,51.5,29.35,SSW,202,1.1,1.1,80,0.00,,OVC015,0.00,VWS V14.01,2013-04-14 02:00:00,
2013-04-13 19:05:00,57.6,51.5,29.35,SSW,202,1.1,1.1,80,0.00,,OVC015,0.00,VWS V14.01,2013-04-14 02:05:00,
2013-04-13 19:10:00,57.4,51.3,29.35,SSW,202,1.1,1.1,80,0.00,,OVC015,0.00,VWS V14.01,2013-04-14 02:10:00,
2013-04-13 19:15:00,57.2,51.1,29.38,SSW,202,1.1,1.1,80,0.00,,OVC015,0.00,VWS V14.01,2013-04-14 02:15:00,
2013-04-13 19:20:00,57.2,51.1,29.38,SSW,202,1.1,1.1,80,0.00,,OVC015,0.00,VWS V14.01,2013-04-14 02:20:00,
2013-04-13 19:25:00,57.2,51.1,29.38,SSW,202,1.1,1.1,80,0.00,,OVC015,0.00,VWS V14.01,2013-04-14 02:25:00,
2013-04-13 19:30:00,57.2,51.1,29.35,SSW,202,1.1,1.1,80,0.00,,OVC015,0.00,VWS V14.01,2013-04-14 02:30:00,
2013-04-13 19:35:00,57.0,51.3,29.35,SSW,202,1.1,1.1,81,0.00,,OVC015,0.00,VWS V14.01,2013-04-14 02:35:00,
2013-04-13 19:40:00,57.0,51.3,29.35,SSW,202,1.1,1.1,81,0.00,,OVC015,0.00,VWS V14.01,2013-04-14 02:40:00,
2013-04-13 19:45:00,56.8,51.1,29.35,SSW,202,1.1,1.1,81,0.00,,OVC015,0.00,VWS V14.01,2013-04-14 02:45:00,
2013-04-13 19:50:00,56.7,50.9,29.35,SSW,202,1.1,1.1,81,0.00,,OVC015,0.00,VWS V14.01,2013-04-14 02:50:00,
2013-04-13 19:55:00,56.5,50.7,29.35,SSW,202,1.1,1.1,81,0.00,,OVC015,0.00,VWS V14.01,2013-04-14 02:55:00,
2013-04-13 20:00:00,56.5,51.1,29.38,SSW,202,1.1,1.1,82,0.00,,OVC015,0.00,VWS V14.01,2013-04-14 03:00:00,
2013-04-13 20:05:00,56.3,50.5,29.38,SSW,202,1.1,1.1,81,0.00,,OVC015,0.00,VWS V14.01,2013-04-14 03:05:00,
2013-04-13 20:10:00,56.3,50.9,29.38,SSW,202,1.1,1.1,82,0.00,,OVC015,0.00,VWS V14.01,2013-04-14 03:10:00,
2013-04-13 20:15:00,56.3,50.9,29.38,SSW,202,1.1,1.1,82,0.00,,OVC015,0.00,VWS V14.01,2013-04-14 03:15:00,
2013-04-13 20:20:00,56.3,50.9,29.38,SSW,202,1.1,1.1,82,0.00,,OVC015,0.00,VWS V14.01,2013-04-14 03:20:00,
2013-04-13 20:25:00,56.1,50.7,29.38,SSW,202,1.1,1.1,82,0.00,,OVC015,0.00,VWS V14.01,2013-04-14 03:25:00,
2013-04-13 20:30:00,56.1,50.7,29.38,SSW,202,1.1,1.1,82,0.00,,OVC015,0.00,VWS V14.01,2013-04-14 03:30:00,
2013-04-13 20:35:00,56.1,50.7,29.38,SSW,202,1.1,1.1,82,0.00,,OVC015,0.00,VWS V14.01,2013-04-14 03:35:00,
2013-04-13 20:40:00,55.9,50.5,29.38,SSW,202,1.1,1.1,82,0.00,,OVC015,0.00,VWS V14.01,2013-04-14 03:40:00,
2013-04-13 20:45:00,55.9,50.9,29.38,SSW,202,1.1,1.1,83,0.00,,OVC015,0.00,VWS V14.01,2013-04-14 03:45:00,
2013-04-13 20:50:00,55.9,50.9,29.38,SSW,202,1.1,1.1,83,0.00,,OVC015,0.00,VWS V14.01,2013-04-14 03:50:00,
2013-04-13 20:55:00,55.9,50.9,29.38,SSW,202,1.1,1.1,83,0.00,,OVC015,0.00,VWS V14.01,2013-04-14 03:55:00,
2013-04-13 21:00:00,55.8,50.7,29.38,SSW,202,1.1,1.1,83,0.00,,OVC015,0.00,VWS V14.01,2013-04-14 04:00:00,
2013-04-13 21:05:00,55.6,50.5,29.38,SSW,202,1.1,1.1,83,0.00,,OVC015,0.00,VWS V14.01,2013-04-14 04:05:00,
2013-04-13 21:10:00,55.6,50.5,29.38,SSW,202,1.1,1.1,83,0.00,,OVC015,0.00,VWS V14.01,2013-04-14 04:10:00,
2013-04-13 21:15:00,55.6,50.5,29.38,SSW,202,1.1,1.1,83,0.00,,OVC015,0.00,VWS V14.01,2013-04-14 04:15:00,
2013-04-13 21:20:00,55.6,50.5,29.38,SSW,202,1.1,1.1,83,0.00,,OVC015,0.00,VWS V14.01,2013-04-14 04:20:00,
2013-04-13 21:25:00,55.4,50.0,29.38,SSW,202,1.1,1.1,82,0.00,,OVC015,0.00,VWS V14.01,2013-04-14 04:25:00,
2013-04-13 21:30:00,55.4,50.0,29.38,SSW,202,1.1,1.1,82,0.00,,OVC015,0.00,VWS V14.01,2013-04-14 04:30:00,
2013-04-13 21:35:00,55.4,50.0,29.38,SSW,202,1.1,1.1,82,0.00,,OVC015,0.00,VWS V14.01,2013-04-14 04:35:00,
2013-04-13 21:40:00,55.4,50.3,29.38,SSW,202,1.1,1.1,83,0.00,,OVC015,0.00,VWS V14.01,2013-04-14 04:40:00,
2013-04-13 21:45:00,55.4,50.3,29.41,SSW,202,1.1,1.1,83,0.00,,OVC015,0.00,VWS V14.01,2013-04-14 04:45:00,
2013-04-13 21:50:00,55.4,50.3,29.41,SSW,202,1.1,1.1,83,0.00,,OVC015,0.00,VWS V14.01,2013-04-14 04:50:00,
2013-04-13 21:55:00,55.4,50.3,29.41,SSW,202,1.1,1.1,83,0.00,,OVC015,0.00,VWS V14.01,2013-04-14 04:55:00,
2013-04-13 22:00:00,55.4,50.3,29.41,SSW,202,1.1,1.1,83,0.00,,OVC015,0.00,VWS V14.01,2013-04-14 05:00:00,
2013-04-13 22:05:00,55.4,50.3,29.41,SSW,202,1.1,1.1,83,0.00,,OVC015,0.00,VWS V14.01,2013-04-14 05:05:00,
2013-04-13 22:10:00,55.4,50.3,29.41,SSW,202,1.1,1.1,83,0.00,,OVC015,0.00,VWS V14.01,2013-04-14 05:10:00,
2013-04-13 22:16:00,55.4,50.0,29.38,SSW,202,1.1,1.1,82,0.00,,OVC015,0.00,VWS V14.01,2013-04-14 05:16:00,
2013-04-13 22:21:00,55.4,50.0,29.38,SSW,202,1.1,1.1,82,0.00,,OVC015,0.00,VWS V14.01,2013-04-14 05:21:00,
2013-04-13 22:26:00,55.4,50.0,29.38,SSW,202,1.1,1.1,82,0.00,,OVC015,0.00,VWS V14.01,2013-04-14 05:26:00,
2013-04-13 22:31:00,55.4,50.0,29.38,SSW,202,2.0,2.0,82,0.00,,OVC015,0.00,VWS V14.01,2013-04-14 05:31:00,
2013-04-13 22:36:00,55.4,50.0,29.38,SSW,202,2.0,2.0,82,0.00,,OVC015,0.00,VWS V14.01,2013-04-14 05:36:00,
2013-04-13 22:41:00,55.4,50.0,29.38,SSW,202,2.0,2.0,82,0.00,,OVC015,0.00,VWS V14.01,2013-04-14 05:41:00,
2013-04-13 22:46:00,55.2,49.8,29.41,SSW,202,2.0,2.0,82,0.00,,OVC015,0.00,VWS V14.01,2013-04-14 05:46:00,
2013-04-13 22:51:00,55.2,49.8,29.41,SSW,202,2.0,2.0,82,0.00,,OVC015,0.00,VWS V14.01,2013-04-14 05:51:00,
2013-04-13 22:56:00,55.2,49.8,29.41,SSW,202,2.0,2.0,82,0.00,,OVC015,0.00,VWS V14.01,2013-04-14 05:56:00,
2013-04-13 23:01:00,55.2,49.5,29.38,SSW,202,2.0,2.0,81,0.00,,OVC019,0.00,VWS V14.01,2013-04-14 06:01:00,
2013-04-13 23:06:00,55.2,49.5,29.38,SSW,202,2.0,2.0,81,0.00,,OVC019,0.00,VWS V14.01,2013-04-14 06:06:00,
2013-04-13 23:11:00,55.2,49.5,29.38,SSW,202,2.0,2.0,81,0.00,,OVC019,0.00,VWS V14.01,2013-04-14 06:11:00,
2013-04-13 23:16:00,55.2,49.5,29.38,SSW,202,2.0,2.0,81,0.00,,OVC019,0.00,VWS V14.01,2013-04-14 06:16:00,
2013-04-13 23:21:00,55.0,49.0,29.38,SSW,202,2.0,2.0,80,0.00,,OVC019,0.00,VWS V14.01,2013-04-14 06:21:00,
2013-04-13 23:26:00,55.0,49.0,29.38,SSW,202,2.0,2.0,80,0.00,,OVC019,0.00,VWS V14.01,2013-04-14 06:26:00,
2013-04-13 23:31:00,55.0,49.0,29.38,SSW,202,2.0,2.0,80,0.00,,OVC019,0.00,VWS V14.01,2013-04-14 06:31:00,
2013-04-13 23:36:00,55.0,49.0,29.38,SSW,202,2.0,2.0,80,0.00,,OVC019,0.00,VWS V14.01,2013-04-14 06:36:00,
2013-04-13 23:41:00,55.0,49.0,29.38,SSW,202,2.0,2.0,80,0.00,,OVC019,0.00,VWS V14.01,2013-04-14 06:41:00,
2013-04-13 23:47:00,55.0,49.3,29.38,SSW,202,2.0,2.0,81,0.00,,OVC019,0.00,VWS V14.01,2013-04-14 06:47:00,
2013-04-13 23:52:00,55.0,49.0,29.38,SSW,202,2.0,2.0,80,0.00,,OVC019,0.00,VWS V14.01,2013-04-14 06:52:00,
2013-04-13 23:57:00,54.9,48.8,29.38,SSW,202,2.0,2.0,80,0.00,,OVC019,0.00,VWS V14.01,2013-04-14 06:57:00,